createdAt,value
2022-09-12T00:01:36.684Z,62.92
2022-09-12T00:04:05.125Z,62.77
2022-09-12T00:06:36.040Z,62.57
2022-09-12T00:09:08.052Z,62.43
2022-09-12T00:11:39.172Z,62.38
2022-09-12T00:14:10.582Z,62.01
2022-09-12T00:16:39.751Z,62.02
2022-09-12T00:19:09.509Z,61.50
2022-09-12T00:21:39.960Z,61.43
2022-09-12T00:24:09.521Z,61.15
2022-09-12T00:26:39.282Z,60.48
2022-09-12T00:29:07.800Z,60.45
2022-09-12T00:31:36.427Z,60.17
2022-09-12T00:34:04.878Z,60.00
2022-09-12T00:36:33.237Z,59.69
2022-09-12T00:39:01.709Z,59.69
2022-09-12T00:41:32.524Z,59.42
2022-09-12T00:44:05.801Z,59.48
2022-09-12T00:46:40.958Z,59.39
2022-09-12T00:49:15.683Z,59.01
2022-09-12T00:51:53.780Z,58.95
2022-09-12T00:54:27.683Z,58.77
2022-09-12T00:57:01.923Z,58.84
2022-09-12T00:59:39.184Z,58.69
2022-09-12T01:02:08.545Z,58.85
2022-09-12T01:04:38.982Z,58.61
2022-09-12T01:07:09.673Z,58.53
2022-09-12T01:09:39.150Z,58.51
2022-09-12T01:12:07.986Z,58.58
2022-09-12T01:14:39.491Z,58.56
2022-09-12T01:17:08.410Z,58.53
2022-09-12T01:20:33.067Z,58.74
2022-09-12T01:23:55.660Z,58.76
2022-09-12T01:27:21.784Z,58.75
2022-09-12T01:30:33.072Z,59.08
2022-09-12T01:33:39.969Z,59.00
2022-09-12T01:36:34.775Z,59.03
2022-09-12T01:39:05.881Z,59.06
2022-09-12T01:41:50.096Z,58.98
2022-09-12T01:44:30.198Z,59.00
2022-09-12T01:47:08.564Z,59.10
2022-09-12T01:49:46.361Z,58.90
2022-09-12T01:52:22.038Z,58.79
2022-09-12T01:54:57.153Z,58.75
2022-09-12T01:57:31.220Z,58.58
2022-09-12T02:00:06.201Z,58.45
2022-09-12T02:02:40.839Z,58.26
2022-09-12T02:05:13.049Z,58.30
2022-09-12T02:07:46.948Z,58.09
2022-09-12T02:10:21.267Z,57.72
2022-09-12T02:12:58.469Z,57.89
2022-09-12T02:15:33.662Z,57.71
2022-09-12T02:18:07.646Z,57.65
2022-09-12T02:20:51.555Z,57.46
2022-09-12T02:23:25.442Z,57.57
2022-09-12T02:25:58.699Z,57.76
2022-09-12T02:28:31.892Z,57.68
2022-09-12T02:31:11.689Z,58.00
2022-09-12T02:33:50.587Z,57.87
2022-09-12T02:36:33.366Z,57.66
2022-09-12T02:39:01.950Z,57.96
2022-09-12T02:41:30.417Z,57.90
2022-09-12T02:43:58.878Z,57.96
2022-09-12T02:46:34.252Z,57.85
2022-09-12T02:49:09.349Z,57.94
2022-09-12T02:51:38.657Z,57.95
2022-09-12T02:54:09.322Z,58.01
2022-09-12T02:56:42.777Z,58.12
2022-09-12T02:59:16.967Z,58.00
2022-09-12T03:02:08.728Z,58.02
2022-09-12T03:04:59.639Z,58.10
2022-09-12T03:07:45.932Z,58.08
2022-09-12T03:10:25.299Z,58.24
2022-09-12T03:13:08.344Z,58.28
2022-09-12T03:15:51.043Z,58.32
2022-09-12T03:18:40.940Z,58.22
2022-09-12T03:21:21.367Z,58.29
2022-09-12T03:24:05.520Z,58.46
2022-09-12T03:26:43.036Z,58.41
2022-09-12T03:29:14.010Z,58.53
2022-09-12T03:31:52.390Z,58.42
2022-09-12T03:34:22.544Z,58.40
2022-09-12T03:36:55.476Z,58.47
2022-09-12T03:39:26.457Z,58.41
2022-09-12T03:41:54.937Z,58.17
2022-09-12T03:44:23.732Z,58.55
2022-09-12T03:46:52.495Z,58.66
2022-09-12T03:49:20.867Z,58.58
2022-09-12T03:51:49.336Z,58.53
2022-09-12T03:54:19.028Z,58.67
2022-09-12T03:56:47.512Z,58.63
2022-09-12T03:59:15.833Z,58.63
2022-09-12T04:01:44.141Z,58.64
2022-09-12T04:04:12.530Z,58.72
2022-09-12T04:06:41.992Z,58.72
2022-09-12T04:09:10.398Z,58.77
2022-09-12T04:11:40.097Z,58.81
2022-09-12T04:14:08.528Z,58.79
2022-09-12T04:16:37.041Z,58.85
2022-09-12T04:19:05.416Z,58.98
2022-09-12T04:21:33.915Z,58.91
2022-09-12T04:24:02.829Z,59.07
2022-09-12T04:26:31.905Z,59.03
2022-09-12T04:29:01.670Z,59.21
2022-09-12T04:31:30.300Z,59.12
2022-09-12T04:34:01.464Z,59.03
2022-09-12T04:36:31.161Z,59.08
2022-09-12T04:39:00.378Z,59.13
2022-09-12T04:41:31.244Z,58.94
2022-09-12T04:44:04.461Z,58.83
2022-09-12T04:46:36.763Z,58.93
2022-09-12T04:49:05.269Z,58.81
2022-09-12T04:51:36.440Z,58.41
2022-09-12T04:54:07.900Z,58.41
2022-09-12T04:56:39.508Z,57.86
2022-09-12T04:59:10.461Z,57.99
2022-09-12T05:01:38.949Z,57.69
2022-09-12T05:04:07.395Z,57.65
2022-09-12T05:06:38.488Z,57.71
2022-09-12T05:09:09.133Z,57.64
2022-09-12T05:12:03.205Z,57.80
2022-09-12T05:14:32.495Z,57.63
2022-09-12T05:17:01.780Z,57.68
2022-09-12T05:19:31.756Z,57.28
2022-09-12T05:22:01.225Z,57.32
2022-09-12T05:24:29.558Z,57.02
2022-09-12T05:26:57.959Z,56.66
2022-09-12T05:29:27.140Z,56.31
2022-09-12T05:31:56.968Z,56.45
2022-09-12T05:34:25.548Z,56.32
2022-09-12T05:36:53.899Z,56.32
2022-09-12T05:39:22.283Z,56.37
2022-09-12T05:41:50.692Z,56.22
2022-09-12T05:44:19.063Z,56.11
2022-09-12T05:46:50.872Z,56.12
2022-09-12T05:49:21.546Z,56.04
2022-09-12T05:51:50.845Z,56.12
2022-09-12T05:54:21.525Z,55.73
2022-09-12T05:56:50.212Z,55.31
2022-09-12T05:59:21.646Z,55.21
2022-09-12T06:01:50.654Z,54.97
2022-09-12T06:04:20.744Z,54.78
2022-09-12T06:06:49.114Z,54.72
2022-09-12T06:09:18.815Z,54.99
2022-09-12T06:11:47.895Z,54.61
2022-09-12T06:14:18.082Z,54.13
2022-09-12T06:16:47.365Z,54.73
2022-09-12T06:19:18.751Z,54.35
2022-09-12T06:21:49.566Z,54.64
2022-09-12T06:24:19.185Z,54.56
2022-09-12T06:26:48.518Z,54.56
2022-09-12T06:29:17.460Z,54.35
2022-09-12T06:31:46.509Z,54.03
2022-09-12T06:34:16.700Z,52.95
2022-09-12T06:36:48.802Z,53.09
2022-09-12T06:39:19.537Z,52.91
2022-09-12T06:41:49.074Z,53.05
2022-09-12T06:44:20.122Z,52.76
2022-09-12T06:46:49.101Z,52.20
2022-09-12T06:49:18.711Z,52.00
2022-09-12T06:51:49.367Z,51.84
2022-09-12T06:54:18.240Z,51.33
2022-09-12T06:56:46.826Z,50.50
2022-09-12T06:59:15.348Z,51.12
2022-09-12T07:01:44.028Z,50.60
2022-09-12T07:04:12.757Z,50.35
2022-09-12T07:06:44.773Z,49.90
2022-09-12T07:09:17.505Z,49.04
2022-09-12T07:11:47.028Z,48.76
2022-09-12T07:14:16.935Z,48.93
2022-09-12T07:16:45.514Z,49.41
2022-09-12T07:19:14.118Z,48.97
2022-09-12T07:21:42.525Z,49.16
2022-09-12T07:24:13.131Z,49.07
2022-09-12T07:26:42.667Z,49.13
2022-09-12T07:32:07.176Z,48.32
2022-09-12T07:34:36.582Z,48.27
2022-09-12T07:37:05.227Z,48.13
2022-09-12T07:39:35.058Z,48.41
2022-09-12T07:42:03.519Z,47.61
2022-09-12T07:44:31.902Z,47.73
2022-09-12T07:47:00.372Z,47.85
2022-09-12T07:49:29.042Z,47.24
2022-09-12T07:51:57.878Z,47.52
2022-09-12T07:54:26.408Z,47.35
2022-09-12T07:56:56.770Z,47.15
2022-09-12T07:59:50.872Z,47.62
2022-09-12T08:02:17.801Z,47.94
2022-09-12T08:04:48.288Z,47.54
2022-09-12T08:07:18.402Z,48.19
2022-09-12T08:09:47.447Z,47.98
2022-09-12T08:12:21.049Z,47.79
2022-09-12T08:14:49.503Z,48.42
2022-09-12T08:17:18.026Z,48.06
2022-09-12T08:19:46.477Z,47.90
2022-09-12T08:22:17.342Z,47.82
2022-09-12T08:24:46.519Z,47.76
2022-09-12T08:27:16.826Z,47.72
2022-09-12T08:29:45.211Z,47.66
2022-09-12T08:32:13.841Z,47.36
2022-09-12T08:34:42.273Z,47.02
2022-09-12T08:37:10.816Z,46.67
2022-09-12T08:39:39.322Z,46.37
2022-09-12T08:45:13.279Z,46.22
2022-09-12T08:47:45.889Z,45.91
2022-09-12T08:50:19.893Z,44.83
2022-09-12T08:52:58.564Z,45.36
2022-09-12T08:55:35.721Z,45.09
2022-09-12T08:58:14.622Z,45.22
2022-09-12T09:00:55.877Z,45.33
2022-09-12T09:03:57.790Z,45.26
2022-09-12T09:06:58.396Z,45.51
2022-09-12T09:09:43.027Z,46.04
2022-09-12T09:12:24.363Z,45.43
2022-09-12T09:15:38.845Z,44.57
2022-09-12T09:18:18.300Z,44.42
2022-09-12T09:20:52.121Z,44.96
2022-09-12T09:23:30.912Z,44.44
2022-09-12T09:26:02.938Z,43.17
2022-09-12T09:28:40.366Z,42.86
2022-09-12T09:31:16.485Z,42.54
2022-09-12T09:33:50.948Z,42.70
2022-09-12T09:36:25.231Z,43.04
2022-09-12T09:39:03.545Z,42.22
2022-09-12T09:41:47.996Z,41.07
2022-09-12T09:44:16.545Z,40.95
2022-09-12T09:46:45.147Z,40.79
2022-09-12T09:49:17.701Z,40.65
2022-09-12T09:51:46.584Z,40.21
2022-09-12T09:54:21.973Z,39.97
2022-09-12T09:56:53.199Z,38.72
2022-09-12T09:59:28.910Z,38.92
2022-09-12T10:02:03.648Z,39.31
2022-09-12T10:04:41.589Z,39.86
2022-09-12T10:07:21.203Z,40.21
2022-09-12T10:10:15.588Z,40.90
2022-09-12T10:12:45.311Z,38.26
2022-09-12T10:15:22.256Z,38.24
2022-09-12T10:17:52.102Z,37.79
2022-09-12T10:20:45.512Z,38.04
2022-09-12T10:23:32.124Z,37.60
2022-09-12T10:26:04.300Z,37.92
2022-09-12T10:28:39.417Z,38.07
2022-09-12T10:31:09.210Z,37.56
2022-09-12T10:33:43.726Z,37.14
2022-09-12T10:36:14.400Z,37.94
2022-09-12T10:38:52.577Z,37.90
2022-09-12T10:41:22.989Z,38.32
2022-09-12T10:43:51.756Z,38.42
2022-09-12T10:46:29.999Z,37.67
2022-09-12T10:49:29.247Z,37.67
2022-09-12T10:52:17.444Z,36.21
2022-09-12T10:54:46.301Z,34.43
2022-09-12T10:58:00.890Z,35.54
2022-09-12T11:00:31.308Z,34.74
2022-09-12T11:03:10.714Z,33.92
2022-09-12T11:05:56.452Z,34.08
2022-09-12T11:09:11.187Z,34.37
2022-09-12T11:12:01.251Z,32.36
2022-09-12T11:14:57.408Z,33.54
2022-09-12T11:17:42.447Z,33.32
2022-09-12T11:20:54.981Z,32.40
2022-09-12T11:24:18.510Z,32.04
2022-09-12T11:27:01.953Z,31.43
2022-09-12T11:29:49.462Z,30.73
2022-09-12T11:33:08.693Z,30.58
2022-09-12T11:35:45.789Z,29.88
2022-09-12T11:39:00.500Z,29.08
2022-09-12T11:41:34.324Z,28.77
2022-09-12T11:44:15.146Z,28.94
2022-09-12T11:46:49.810Z,29.58
2022-09-12T11:49:34.830Z,29.50
2022-09-12T11:52:12.298Z,28.27
2022-09-12T11:54:52.767Z,27.80
2022-09-12T11:57:35.292Z,28.07
2022-09-12T12:00:09.852Z,28.41
2022-09-12T12:02:49.396Z,26.74
2022-09-12T12:05:23.911Z,25.83
2022-09-12T12:07:56.045Z,27.00
2022-09-12T12:10:34.088Z,25.42
2022-09-12T12:13:13.832Z,26.07
2022-09-12T12:15:48.724Z,26.29
2022-09-12T12:18:21.721Z,25.36
2022-09-12T12:20:50.963Z,26.30
2022-09-12T12:23:30.218Z,25.48
2022-09-12T12:26:01.040Z,24.97
2022-09-12T12:29:03.663Z,25.11
2022-09-12T12:31:32.443Z,24.29
2022-09-12T12:34:30.921Z,24.91
2022-09-12T12:37:05.536Z,25.41
2022-09-12T12:40:01.409Z,25.24
2022-09-12T12:43:32.183Z,25.30
2022-09-12T12:46:17.602Z,25.17
2022-09-12T12:49:10.632Z,25.06
2022-09-12T12:51:57.124Z,24.90
2022-09-12T12:54:35.867Z,24.57
2022-09-12T12:57:17.591Z,25.22
2022-09-12T12:59:52.983Z,24.51
2022-09-12T13:02:28.344Z,24.36
2022-09-12T13:04:58.058Z,24.82
2022-09-12T13:07:35.034Z,24.46
2022-09-12T13:10:07.186Z,23.50
2022-09-12T13:12:39.059Z,23.50
2022-09-12T13:15:50.389Z,23.26
2022-09-12T13:18:27.928Z,22.24
2022-09-12T13:21:09.060Z,20.66
2022-09-12T13:23:37.706Z,20.54
2022-09-12T13:26:14.126Z,19.61
2022-09-12T13:28:43.388Z,18.76
2022-09-12T13:31:23.320Z,18.87
2022-09-12T13:33:54.858Z,18.78
2022-09-12T13:36:54.875Z,18.70
2022-09-12T13:39:29.009Z,18.15
2022-09-12T13:42:39.137Z,17.88
2022-09-12T13:45:15.531Z,17.29
2022-09-12T13:47:47.742Z,16.93
2022-09-12T13:50:21.671Z,16.67
2022-09-12T13:52:55.746Z,16.29
2022-09-12T13:55:31.768Z,16.54
2022-09-12T13:58:03.374Z,16.53
2022-09-12T14:00:37.332Z,16.69
2022-09-12T14:03:58.123Z,17.12
2022-09-12T14:06:27.796Z,17.75
2022-09-12T14:08:59.024Z,17.82
2022-09-12T14:11:29.596Z,17.78
2022-09-12T14:13:59.468Z,17.95
2022-09-12T14:16:29.166Z,18.57
2022-09-12T14:18:59.789Z,18.40
2022-09-12T14:21:36.866Z,18.56
2022-09-12T14:24:08.673Z,19.28
2022-09-12T14:26:40.592Z,19.66
2022-09-12T14:29:13.653Z,20.18
2022-09-12T14:31:43.826Z,20.56
2022-09-12T14:34:17.227Z,21.27
2022-09-12T14:36:49.110Z,21.77
2022-09-12T14:39:23.913Z,22.14
2022-09-12T14:42:02.367Z,22.64
2022-09-12T14:44:32.195Z,23.11
2022-09-12T14:47:14.019Z,23.46
2022-09-12T14:49:44.132Z,24.07
2022-09-12T14:52:28.293Z,24.40
2022-09-12T14:55:00.017Z,24.78
2022-09-12T14:57:40.164Z,24.97
2022-09-12T15:00:24.365Z,25.40
2022-09-12T15:02:54.647Z,25.60
2022-09-12T15:05:28.661Z,25.70
2022-09-12T15:08:00.279Z,26.19
2022-09-12T15:10:33.134Z,26.25
2022-09-12T15:13:20.677Z,26.47
2022-09-12T15:15:51.916Z,26.58
2022-09-12T15:18:21.837Z,26.60
2022-09-12T15:20:56.125Z,27.07
2022-09-12T15:23:35.622Z,26.69
2022-09-12T15:26:05.082Z,26.97
2022-09-12T15:28:34.723Z,27.34
2022-09-12T15:31:11.548Z,27.49
2022-09-12T15:33:39.945Z,27.50
2022-09-12T15:36:17.766Z,27.81
2022-09-12T15:38:47.317Z,28.08
2022-09-12T15:41:19.528Z,27.93
2022-09-12T15:43:48.872Z,28.27
2022-09-12T15:46:19.487Z,28.70
2022-09-12T15:48:48.243Z,28.30
2022-09-12T15:51:20.781Z,28.52
2022-09-12T15:53:51.219Z,28.81
2022-09-12T15:56:22.672Z,29.24
2022-09-12T15:58:59.165Z,28.99
2022-09-12T16:01:31.309Z,29.21
2022-09-12T16:03:59.943Z,29.33
2022-09-12T16:06:36.303Z,28.97
2022-09-12T16:09:05.597Z,28.46
2022-09-12T16:11:34.144Z,28.54
2022-09-12T16:14:03.814Z,28.50
2022-09-12T16:16:32.610Z,28.54
2022-09-12T16:19:00.991Z,28.95
2022-09-12T16:21:31.006Z,28.98
2022-09-12T16:23:59.544Z,29.03
2022-09-12T16:26:28.073Z,29.17
2022-09-12T16:28:57.329Z,29.79
2022-09-12T16:31:26.263Z,29.51
2022-09-12T16:33:54.930Z,29.53
2022-09-12T16:36:24.202Z,29.77
2022-09-12T16:38:55.531Z,30.09
2022-09-12T16:41:26.399Z,30.06
2022-09-12T16:43:55.409Z,30.40
2022-09-12T16:46:26.585Z,31.06
2022-09-12T16:48:58.030Z,30.88
2022-09-12T16:51:28.768Z,30.96
2022-09-12T16:53:58.897Z,31.70
2022-09-12T16:56:27.663Z,31.46
2022-09-12T16:59:04.199Z,31.72
2022-09-12T17:01:33.740Z,31.74
2022-09-12T17:04:02.859Z,32.07
2022-09-12T17:06:31.814Z,32.30
2022-09-12T17:09:04.362Z,31.95
2022-09-12T17:11:36.551Z,32.28
2022-09-12T17:14:07.740Z,32.41
2022-09-12T17:16:38.580Z,32.65
2022-09-12T17:19:08.098Z,32.68
2022-09-12T17:21:36.897Z,32.53
2022-09-12T17:24:07.090Z,32.88
2022-09-12T17:26:35.556Z,32.96
2022-09-12T17:29:04.354Z,32.73
2022-09-12T17:31:35.937Z,33.07
2022-09-12T17:34:04.991Z,33.18
2022-09-12T17:36:34.098Z,33.20
2022-09-12T17:39:05.012Z,33.53
2022-09-12T17:41:34.979Z,33.37
2022-09-12T17:44:05.027Z,33.68
2022-09-12T17:46:36.285Z,33.89
2022-09-12T17:49:07.941Z,33.97
2022-09-12T17:51:36.934Z,33.88
2022-09-12T17:54:08.491Z,34.20
2022-09-12T17:56:39.609Z,34.10
2022-09-12T17:59:11.951Z,34.35
2022-09-12T18:01:58.037Z,34.42
2022-09-12T18:04:27.861Z,34.38
2022-09-12T18:06:57.894Z,34.63
2022-09-12T18:09:26.605Z,34.72
2022-09-12T18:11:57.399Z,34.95
2022-09-12T18:14:28.033Z,35.09
2022-09-12T18:16:57.426Z,35.21
2022-09-12T18:19:27.027Z,35.26
2022-09-12T18:21:56.594Z,35.28
2022-09-12T18:24:25.852Z,35.45
2022-09-12T18:26:56.961Z,35.57
2022-09-12T18:29:28.069Z,35.69
2022-09-12T18:31:57.274Z,35.90
2022-09-12T18:34:26.013Z,35.95
2022-09-12T18:36:55.261Z,36.13
2022-09-12T18:39:27.630Z,36.30
2022-09-12T18:41:58.077Z,36.35
2022-09-12T18:44:26.873Z,36.44
2022-09-12T18:46:56.255Z,36.68
2022-09-12T18:49:25.328Z,36.49
2022-09-12T18:51:53.777Z,36.68
2022-09-12T18:54:22.788Z,36.93
2022-09-12T18:56:51.306Z,36.95
2022-09-12T18:59:22.433Z,37.07
2022-09-12T19:01:51.406Z,37.26
2022-09-12T19:04:20.106Z,37.20
2022-09-12T19:06:50.538Z,37.27
2022-09-12T19:09:22.046Z,37.43
2022-09-12T19:11:51.043Z,37.55
2022-09-12T19:14:24.021Z,37.68
2022-09-12T19:16:53.669Z,37.61
2022-09-12T19:19:23.398Z,37.62
2022-09-12T19:21:55.104Z,37.79
2022-09-12T19:24:23.906Z,38.10
2022-09-12T19:26:52.770Z,38.27
2022-09-12T19:29:22.910Z,38.09
2022-09-12T19:31:51.580Z,38.14
2022-09-12T19:34:20.672Z,38.11
2022-09-12T19:36:49.386Z,38.16
2022-09-12T19:39:20.805Z,38.25
2022-09-12T19:41:49.426Z,38.26
2022-09-12T19:44:19.447Z,38.27
2022-09-12T19:46:49.477Z,38.85
2022-09-12T19:49:18.153Z,39.34
2022-09-12T19:51:46.588Z,38.98
2022-09-12T19:54:15.126Z,39.42
2022-09-12T19:56:43.719Z,39.79
2022-09-12T19:59:12.689Z,39.44
2022-09-12T20:01:41.413Z,39.70
2022-09-12T20:04:11.351Z,39.85
2022-09-12T20:06:40.168Z,39.78
2022-09-12T20:09:08.541Z,40.24
2022-09-12T20:11:36.911Z,40.16
2022-09-12T20:14:05.274Z,40.35
2022-09-12T20:16:36.721Z,40.31
2022-09-12T20:19:08.555Z,40.59
2022-09-12T20:21:38.682Z,40.85
2022-09-12T20:24:09.600Z,41.14
2022-09-12T20:26:38.038Z,41.08
2022-09-12T20:29:07.650Z,41.21
2022-09-12T20:31:37.433Z,41.51
2022-09-12T20:34:06.122Z,41.64
2022-09-12T20:36:38.589Z,41.48
2022-09-12T20:39:07.346Z,41.32
2022-09-12T20:41:36.738Z,41.46
2022-09-12T20:44:05.266Z,41.67
2022-09-12T20:46:34.346Z,42.02
2022-09-12T20:49:02.967Z,41.76
2022-09-12T20:51:31.848Z,42.04
2022-09-12T20:54:04.132Z,41.92
2022-09-12T20:56:35.738Z,42.49
2022-09-12T20:59:04.658Z,42.25
2022-09-12T21:01:33.742Z,42.59
2022-09-12T21:04:03.101Z,42.36
2022-09-12T21:06:31.642Z,42.69
2022-09-12T21:09:01.588Z,42.62
2022-09-12T21:11:30.921Z,42.81
2022-09-12T21:13:59.503Z,42.97
2022-09-12T21:16:27.957Z,43.10
2022-09-12T21:18:59.496Z,42.88
2022-09-12T21:21:28.385Z,42.85
2022-09-12T21:24:02.763Z,43.21
2022-09-12T21:26:31.905Z,43.26
2022-09-12T21:29:00.265Z,43.28
2022-09-12T21:31:28.721Z,43.38
2022-09-12T21:33:57.189Z,43.67
2022-09-12T21:36:29.027Z,43.37
2022-09-12T21:39:00.943Z,43.54
2022-09-12T21:41:29.718Z,43.62
2022-09-12T21:43:58.026Z,43.75
2022-09-12T21:46:26.500Z,43.51
2022-09-12T21:48:55.373Z,43.77
2022-09-12T21:51:23.709Z,43.63
2022-09-12T21:53:52.248Z,43.94
2022-09-12T21:56:22.012Z,43.68
2022-09-12T21:58:50.346Z,43.99
2022-09-12T22:01:18.787Z,43.95
2022-09-12T22:03:47.309Z,43.86
2022-09-12T22:06:18.629Z,43.97
2022-09-12T22:08:50.200Z,44.28
2022-09-12T22:11:20.649Z,44.05
2022-09-12T22:13:50.421Z,44.06
2022-09-12T22:16:18.858Z,44.11
2022-09-12T22:18:47.900Z,44.36
2022-09-12T22:21:18.969Z,44.47
2022-09-12T22:24:05.153Z,44.49
2022-09-12T22:26:41.271Z,44.24
2022-09-12T22:29:11.304Z,44.65
2022-09-12T22:31:40.154Z,44.41
2022-09-12T22:34:08.587Z,44.25
2022-09-12T22:36:38.974Z,44.56
2022-09-12T22:39:07.903Z,44.43
2022-09-12T22:41:36.287Z,44.46
2022-09-12T22:44:04.828Z,44.49
2022-09-12T22:46:34.995Z,44.52
2022-09-12T22:49:04.703Z,44.10
2022-09-12T22:51:33.710Z,44.31
2022-09-12T22:54:02.042Z,44.20
2022-09-12T22:56:30.413Z,44.64
2022-09-12T22:58:59.169Z,44.36
2022-09-12T23:01:27.836Z,44.25
2022-09-12T23:03:57.581Z,44.24
2022-09-12T23:06:26.545Z,44.44
2022-09-12T23:08:56.300Z,44.61
2022-09-12T23:11:25.084Z,44.50
2022-09-12T23:13:53.481Z,44.66
2022-09-12T23:16:24.919Z,44.35
2022-09-12T23:18:53.550Z,44.38
2022-09-12T23:21:23.708Z,44.33
2022-09-12T23:23:52.570Z,44.15
2022-09-12T23:26:24.481Z,44.48
2022-09-12T23:28:55.039Z,44.16
2022-09-12T23:31:25.158Z,43.96
2022-09-12T23:33:55.786Z,44.04
2022-09-12T23:36:27.225Z,44.43
2022-09-12T23:38:56.416Z,44.33
2022-09-12T23:41:25.480Z,44.38
2022-09-12T23:43:53.832Z,44.39
2022-09-12T23:46:23.011Z,43.95
2022-09-12T23:48:53.257Z,44.47
2022-09-12T23:51:22.811Z,44.40
2022-09-12T23:53:52.648Z,43.98
2022-09-12T23:56:22.188Z,44.12
2022-09-12T23:58:52.721Z,44.55
